createdAt,value
2022-11-30T00:00:38.436Z,57.70
2022-11-30T00:01:40.641Z,49.33
2022-11-30T00:02:43.141Z,60.30
2022-11-30T00:03:46.298Z,59.10
2022-11-30T00:04:48.705Z,53.70
2022-11-30T00:05:51.544Z,55.42
2022-11-30T00:06:57.322Z,52.72
2022-11-30T00:08:01.339Z,48.10
2022-11-30T00:09:03.769Z,57.33
2022-11-30T00:10:06.937Z,56.25
2022-11-30T00:11:10.758Z,52.95
2022-11-30T00:12:12.981Z,48.47
2022-11-30T00:13:15.266Z,56.85
2022-11-30T00:14:17.571Z,51.63
2022-11-30T00:15:20.513Z,58.55
2022-11-30T00:16:24.383Z,57.42
2022-11-30T00:17:26.644Z,53.10
2022-11-30T00:18:28.946Z,47.33
2022-11-30T00:19:31.231Z,57.08
2022-11-30T00:20:33.571Z,59.70
2022-11-30T00:21:35.794Z,56.05
2022-11-30T00:22:38.032Z,60.15
2022-11-30T00:23:42.351Z,60.97
2022-11-30T00:24:44.755Z,53.78
2022-11-30T00:25:47.313Z,61.33
2022-11-30T00:26:49.543Z,49.30
2022-11-30T00:27:52.367Z,60.03
2022-11-30T00:28:54.636Z,56.90
2022-11-30T00:29:57.187Z,53.90
2022-11-30T00:31:01.737Z,48.10
2022-11-30T00:32:04.141Z,54.13
2022-11-30T00:33:06.412Z,55.28
2022-11-30T00:34:08.632Z,52.03
2022-11-30T00:35:10.936Z,52.03
2022-11-30T00:36:16.088Z,59.45
2022-11-30T00:37:18.699Z,49.08
2022-11-30T00:38:20.944Z,53.70
2022-11-30T00:39:23.217Z,52.40
2022-11-30T00:40:25.667Z,55.15
2022-11-30T00:41:27.927Z,48.75
2022-11-30T00:42:30.114Z,55.00
2022-11-30T00:43:32.500Z,52.13
2022-11-30T00:44:34.752Z,52.80
2022-11-30T00:45:36.963Z,56.15
2022-11-30T00:46:39.256Z,61.17
2022-11-30T00:47:41.531Z,51.85
2022-11-30T00:48:43.907Z,53.75
2022-11-30T00:49:46.161Z,58.42
2022-11-30T00:50:49.762Z,55.45
2022-11-30T00:51:52.300Z,58.50
2022-11-30T00:52:54.546Z,58.00
2022-11-30T00:53:56.936Z,54.30
2022-11-30T00:55:02.795Z,56.33
2022-11-30T00:56:07.133Z,57.13
2022-11-30T00:57:09.362Z,56.10
2022-11-30T00:58:12.443Z,54.28
2022-11-30T00:59:15.673Z,55.67
2022-11-30T01:00:18.309Z,52.83
2022-11-30T01:01:20.631Z,57.00
2022-11-30T01:02:22.979Z,52.58
2022-11-30T01:03:25.387Z,56.67
2022-11-30T01:04:27.656Z,55.85
2022-11-30T01:05:30.248Z,49.20
2022-11-30T01:06:33.305Z,55.38
2022-11-30T01:07:35.588Z,55.20
2022-11-30T01:08:37.955Z,56.88
2022-11-30T01:09:40.201Z,56.00
2022-11-30T01:10:44.272Z,54.17
2022-11-30T01:11:46.544Z,48.33
2022-11-30T01:12:49.583Z,54.47
2022-11-30T01:13:53.135Z,51.50
2022-11-30T01:14:55.394Z,54.88
2022-11-30T01:15:57.708Z,56.08
2022-11-30T01:16:59.978Z,51.20
2022-11-30T01:18:02.232Z,50.42
2022-11-30T01:19:04.634Z,54.80
2022-11-30T01:20:11.028Z,51.17
2022-11-30T01:21:16.404Z,48.13
2022-11-30T01:22:18.818Z,55.33
2022-11-30T01:23:21.061Z,54.25
2022-11-30T01:24:23.333Z,49.80
2022-11-30T01:25:25.627Z,51.80
2022-11-30T01:26:28.008Z,54.08
2022-11-30T01:27:30.234Z,53.78
2022-11-30T01:28:32.673Z,47.63
2022-11-30T01:29:34.901Z,51.65
2022-11-30T01:30:37.170Z,52.58
2022-11-30T01:31:39.440Z,48.83
2022-11-30T01:32:41.683Z,55.00
2022-11-30T01:33:43.999Z,48.30
2022-11-30T01:34:46.524Z,48.78
2022-11-30T01:35:48.948Z,53.42
2022-11-30T01:36:51.166Z,53.08
2022-11-30T01:37:54.082Z,50.78
2022-11-30T01:38:57.781Z,61.08
2022-11-30T01:40:00.041Z,50.20
2022-11-30T01:41:03.518Z,55.97
2022-11-30T01:42:13.068Z,50.85
2022-11-30T01:43:15.326Z,53.63
2022-11-30T01:44:20.182Z,54.38
2022-11-30T01:45:22.823Z,56.53
2022-11-30T01:46:27.851Z,52.55
2022-11-30T01:47:40.272Z,51.92
2022-11-30T01:48:42.557Z,54.25
2022-11-30T01:49:51.825Z,52.47
2022-11-30T01:50:54.195Z,51.13
2022-11-30T01:52:03.840Z,56.33
2022-11-30T01:53:10.888Z,50.83
2022-11-30T01:54:17.000Z,49.58
2022-11-30T01:55:26.521Z,55.97
2022-11-30T01:56:29.042Z,54.63
2022-11-30T01:57:36.049Z,51.38
2022-11-30T01:58:38.528Z,51.30
2022-11-30T01:59:40.874Z,58.58
2022-11-30T02:00:47.940Z,51.13
2022-11-30T02:01:52.565Z,50.60
2022-11-30T02:03:06.287Z,55.45
2022-11-30T02:04:21.565Z,55.03
2022-11-30T02:05:25.758Z,58.58
2022-11-30T02:06:29.363Z,49.70
2022-11-30T02:07:31.779Z,46.22
2022-11-30T02:08:34.822Z,56.22
2022-11-30T02:09:43.763Z,62.95
2022-11-30T02:10:53.410Z,50.75
2022-11-30T02:11:56.757Z,51.15
2022-11-30T02:13:16.597Z,53.92
2022-11-30T02:14:43.179Z,47.50
2022-11-30T02:16:09.525Z,53.47
2022-11-30T02:17:25.650Z,55.85
2022-11-30T02:18:52.863Z,51.78
2022-11-30T02:19:57.765Z,54.88
2022-11-30T02:21:24.914Z,50.92
2022-11-30T02:22:51.095Z,55.03
2022-11-30T02:24:05.375Z,54.40
2022-11-30T02:25:25.346Z,56.67
2022-11-30T02:26:49.308Z,57.45
2022-11-30T02:28:37.449Z,50.28
2022-11-30T02:29:59.230Z,50.03
2022-11-30T02:31:04.412Z,51.47
2022-11-30T02:32:21.996Z,47.60
2022-11-30T02:33:29.149Z,52.63
2022-11-30T02:34:34.057Z,53.65
2022-11-30T02:35:40.567Z,52.58
2022-11-30T02:36:45.401Z,57.78
2022-11-30T02:37:49.791Z,53.42
2022-11-30T02:38:52.612Z,54.20
2022-11-30T02:39:54.932Z,55.47
2022-11-30T02:40:57.139Z,53.08
2022-11-30T02:41:59.698Z,53.15
2022-11-30T02:43:03.648Z,55.35
2022-11-30T02:44:08.986Z,50.42
2022-11-30T02:45:12.135Z,52.45
2022-11-30T02:46:31.250Z,56.22
2022-11-30T02:47:49.139Z,54.85
2022-11-30T02:49:17.399Z,48.45
2022-11-30T02:50:28.573Z,51.55
2022-11-30T02:51:33.093Z,51.85
2022-11-30T02:52:35.657Z,57.67
2022-11-30T02:53:38.330Z,50.92
2022-11-30T02:54:41.356Z,52.97
2022-11-30T02:55:43.621Z,52.08
2022-11-30T02:56:45.902Z,51.55
2022-11-30T02:57:48.202Z,52.13
2022-11-30T02:58:50.543Z,55.22
2022-11-30T02:59:53.022Z,55.45
2022-11-30T03:00:55.246Z,56.42
2022-11-30T03:01:57.640Z,55.67
2022-11-30T03:03:00.066Z,56.63
2022-11-30T03:04:02.429Z,54.70
2022-11-30T03:05:05.195Z,58.00
2022-11-30T03:06:07.465Z,52.58
2022-11-30T03:07:09.792Z,54.00
2022-11-30T03:08:12.012Z,59.20
2022-11-30T03:09:14.419Z,52.83
2022-11-30T03:10:16.976Z,59.75
2022-11-30T03:11:19.318Z,54.50
2022-11-30T03:12:21.679Z,59.58
2022-11-30T03:13:23.888Z,58.03
2022-11-30T03:14:26.129Z,50.22
2022-11-30T03:15:28.527Z,53.67
2022-11-30T03:16:30.905Z,60.25
2022-11-30T03:17:33.247Z,52.83
2022-11-30T03:18:35.948Z,53.80
2022-11-30T03:19:38.196Z,52.08
2022-11-30T03:20:46.944Z,60.60
2022-11-30T03:21:49.287Z,61.67
2022-11-30T03:22:51.541Z,57.22
2022-11-30T03:23:53.866Z,57.95
2022-11-30T03:24:56.134Z,65.00
2022-11-30T03:25:59.303Z,55.42
2022-11-30T03:27:01.659Z,58.80
2022-11-30T03:28:04.267Z,62.35
2022-11-30T03:29:06.504Z,53.65
2022-11-30T03:30:10.171Z,60.50
2022-11-30T03:31:13.651Z,56.95
2022-11-30T03:32:16.037Z,61.95
2022-11-30T03:33:18.337Z,56.75
2022-11-30T03:34:20.632Z,52.63
2022-11-30T03:35:22.923Z,56.40
2022-11-30T03:36:25.181Z,52.58
2022-11-30T03:37:27.462Z,62.05
2022-11-30T03:38:30.129Z,56.85
2022-11-30T03:39:32.428Z,57.65
2022-11-30T03:40:36.983Z,57.40
2022-11-30T03:41:39.255Z,59.63
2022-11-30T03:42:41.608Z,61.10
2022-11-30T03:43:44.998Z,56.60
2022-11-30T03:44:47.388Z,57.05
2022-11-30T03:45:49.872Z,62.08
2022-11-30T03:46:52.189Z,54.70
2022-11-30T03:47:54.552Z,54.25
2022-11-30T03:48:56.828Z,51.13
2022-11-30T03:49:59.025Z,55.65
2022-11-30T03:51:01.548Z,54.38
2022-11-30T03:52:03.871Z,57.08
2022-11-30T03:53:06.186Z,62.28
2022-11-30T03:54:08.496Z,61.30
2022-11-30T03:55:11.395Z,63.85
2022-11-30T03:56:14.454Z,55.55
2022-11-30T03:57:16.739Z,56.35
2022-11-30T03:58:18.989Z,53.63
2022-11-30T03:59:21.299Z,63.25
2022-11-30T04:00:23.622Z,56.72
2022-11-30T04:01:26.722Z,61.70
2022-11-30T04:02:29.067Z,53.55
2022-11-30T04:03:31.393Z,62.08
2022-11-30T04:04:33.636Z,63.45
2022-11-30T04:05:35.916Z,53.60
2022-11-30T04:06:38.314Z,58.15
2022-11-30T04:07:40.762Z,60.13
2022-11-30T04:08:43.349Z,55.72
2022-11-30T04:09:45.588Z,47.92
2022-11-30T04:10:50.592Z,47.05
2022-11-30T04:11:52.845Z,50.92
2022-11-30T04:12:55.102Z,60.83
2022-11-30T04:13:57.355Z,48.72
2022-11-30T04:14:59.719Z,53.97
2022-11-30T04:16:02.606Z,44.33
2022-11-30T04:17:05.009Z,52.45
2022-11-30T04:18:07.306Z,49.03
2022-11-30T04:19:09.565Z,53.83
2022-11-30T04:20:12.062Z,50.78
2022-11-30T04:21:14.351Z,50.40
2022-11-30T04:22:16.622Z,52.97
2022-11-30T04:23:20.333Z,48.17
2022-11-30T04:24:22.585Z,50.78
2022-11-30T04:25:25.092Z,49.78
2022-11-30T04:26:27.337Z,44.83
2022-11-30T04:27:29.794Z,43.28
2022-11-30T04:28:32.273Z,48.55
2022-11-30T04:29:34.532Z,49.95
2022-11-30T04:30:38.824Z,51.17
2022-11-30T04:31:41.312Z,44.92
2022-11-30T04:32:43.605Z,47.95
2022-11-30T04:33:45.846Z,49.35
2022-11-30T04:34:48.280Z,42.13
2022-11-30T04:35:54.774Z,47.67
2022-11-30T04:37:00.284Z,49.80
2022-11-30T04:38:02.924Z,51.00
2022-11-30T04:39:05.224Z,55.33
2022-11-30T04:40:08.675Z,46.28
2022-11-30T04:41:11.013Z,50.13
2022-11-30T04:42:13.321Z,48.03
2022-11-30T04:43:15.727Z,45.70
2022-11-30T04:44:18.028Z,44.88
2022-11-30T04:45:20.260Z,47.50
2022-11-30T04:46:22.562Z,43.65
2022-11-30T04:47:24.879Z,46.67
2022-11-30T04:48:27.158Z,50.50
2022-11-30T04:49:29.424Z,45.13
2022-11-30T04:50:32.246Z,46.45
2022-11-30T04:51:34.544Z,40.95
2022-11-30T04:52:36.831Z,47.95
2022-11-30T04:53:39.323Z,46.00
2022-11-30T04:54:41.650Z,46.92
2022-11-30T04:55:43.866Z,48.53
2022-11-30T04:56:46.106Z,56.40
2022-11-30T04:57:48.729Z,47.88
2022-11-30T04:58:50.989Z,43.17
2022-11-30T04:59:53.398Z,46.53
2022-11-30T05:00:55.690Z,46.88
2022-11-30T05:01:58.038Z,50.90
2022-11-30T05:03:00.490Z,45.60
2022-11-30T05:04:02.829Z,47.55
2022-11-30T05:05:05.684Z,43.05
2022-11-30T05:06:08.014Z,39.63
2022-11-30T05:07:10.371Z,50.72
2022-11-30T05:08:12.637Z,42.05
2022-11-30T05:09:14.930Z,47.63
2022-11-30T05:10:17.423Z,50.97
2022-11-30T05:11:19.679Z,41.75
2022-11-30T05:12:21.919Z,43.25
2022-11-30T05:13:25.914Z,46.65
2022-11-30T05:14:28.195Z,41.88
2022-11-30T05:15:31.363Z,43.00
2022-11-30T05:16:33.954Z,41.25
2022-11-30T05:17:36.295Z,45.28
2022-11-30T05:18:38.608Z,42.35
2022-11-30T05:19:40.969Z,47.05
2022-11-30T05:20:48.247Z,51.10
2022-11-30T05:21:50.611Z,46.20
2022-11-30T05:22:52.850Z,51.40
2022-11-30T05:23:55.130Z,48.92
2022-11-30T05:24:57.398Z,48.97
2022-11-30T05:26:03.029Z,46.70
2022-11-30T05:27:10.975Z,51.53
2022-11-30T05:28:16.137Z,45.92
2022-11-30T05:29:18.459Z,51.35
2022-11-30T05:30:20.855Z,42.10
2022-11-30T05:31:23.375Z,51.03
2022-11-30T05:32:25.703Z,51.55
2022-11-30T05:33:27.914Z,47.72
2022-11-30T05:34:30.526Z,46.15
2022-11-30T05:35:33.114Z,47.00
2022-11-30T05:36:35.492Z,49.22
2022-11-30T05:37:37.881Z,46.63
2022-11-30T05:38:40.153Z,47.72
2022-11-30T05:39:42.386Z,45.97
2022-11-30T05:40:44.715Z,55.40
2022-11-30T05:41:47.026Z,52.17
2022-11-30T05:42:55.617Z,54.78
2022-11-30T05:43:57.960Z,44.38
2022-11-30T05:45:00.210Z,45.30
2022-11-30T05:46:03.802Z,51.08
2022-11-30T05:47:06.281Z,46.78
2022-11-30T05:48:09.028Z,51.67
2022-11-30T05:49:11.273Z,47.78
2022-11-30T05:50:14.439Z,50.72
2022-11-30T05:51:19.391Z,49.78
2022-11-30T05:52:21.670Z,51.03
2022-11-30T05:53:23.944Z,47.97
2022-11-30T05:54:26.250Z,54.83
2022-11-30T05:55:29.661Z,44.17
2022-11-30T05:56:31.973Z,48.28
2022-11-30T05:57:40.744Z,47.88
2022-11-30T05:58:43.703Z,50.05
2022-11-30T05:59:45.979Z,48.20
2022-11-30T06:00:48.222Z,54.70
2022-11-30T06:01:52.519Z,54.03
2022-11-30T06:02:58.713Z,47.55
2022-11-30T06:04:04.692Z,50.30
2022-11-30T06:05:09.814Z,48.13
2022-11-30T06:06:12.076Z,49.35
2022-11-30T06:07:14.356Z,49.60
2022-11-30T06:08:16.669Z,44.90
2022-11-30T06:09:18.976Z,44.28
2022-11-30T06:10:21.996Z,47.92
2022-11-30T06:11:24.657Z,47.08
2022-11-30T06:12:26.908Z,47.58
2022-11-30T06:13:29.320Z,48.13
2022-11-30T06:14:31.667Z,46.13
2022-11-30T06:15:33.906Z,46.40
2022-11-30T06:16:39.229Z,44.72
2022-11-30T06:17:41.607Z,45.78
2022-11-30T06:18:44.052Z,51.55
2022-11-30T06:19:46.340Z,49.92
2022-11-30T06:20:48.547Z,50.22
2022-11-30T06:21:50.806Z,47.25
2022-11-30T06:22:53.054Z,45.80
2022-11-30T06:23:56.110Z,45.97
2022-11-30T06:24:58.362Z,47.63
2022-11-30T06:26:10.043Z,43.47
2022-11-30T06:27:12.425Z,51.35
2022-11-30T06:28:14.636Z,46.60
2022-11-30T06:29:17.016Z,45.97
2022-11-30T06:30:19.434Z,48.63
2022-11-30T06:31:21.865Z,42.42
2022-11-30T06:32:24.151Z,47.25
2022-11-30T06:33:26.385Z,41.90
2022-11-30T06:34:32.021Z,47.47
2022-11-30T06:35:34.283Z,49.10
2022-11-30T06:36:36.653Z,47.22
2022-11-30T06:37:39.238Z,46.20
2022-11-30T06:38:41.465Z,43.97
2022-11-30T06:40:05.460Z,48.08
2022-11-30T06:41:08.536Z,44.22
2022-11-30T06:42:10.944Z,44.47
2022-11-30T06:43:13.598Z,52.40
2022-11-30T06:44:15.833Z,49.30
2022-11-30T06:45:18.244Z,45.55
2022-11-30T06:46:21.516Z,49.13
2022-11-30T06:47:24.367Z,44.30
2022-11-30T06:48:26.609Z,48.63
2022-11-30T06:49:28.842Z,51.53
2022-11-30T06:50:31.341Z,48.17
2022-11-30T06:51:33.948Z,48.75
2022-11-30T06:52:36.231Z,48.22
2022-11-30T06:53:38.920Z,46.67
2022-11-30T06:54:41.185Z,43.78
2022-11-30T06:55:44.269Z,43.58
2022-11-30T06:56:46.525Z,52.72
2022-11-30T06:57:49.345Z,51.72
2022-11-30T06:58:52.530Z,51.00
2022-11-30T06:59:55.107Z,43.63
2022-11-30T07:00:57.348Z,47.90
2022-11-30T07:02:05.975Z,45.92
2022-11-30T07:03:11.590Z,40.33
2022-11-30T07:04:13.926Z,44.08
2022-11-30T07:05:16.233Z,47.70
2022-11-30T07:06:18.500Z,42.30
2022-11-30T07:07:21.589Z,47.75
2022-11-30T07:08:23.927Z,44.05
2022-11-30T07:09:26.133Z,48.90
2022-11-30T07:10:28.347Z,45.72
2022-11-30T07:11:31.984Z,40.53
2022-11-30T07:12:35.383Z,41.05
2022-11-30T07:13:38.100Z,44.00
2022-11-30T07:14:40.651Z,46.75
2022-11-30T07:15:43.947Z,42.13
2022-11-30T07:16:46.251Z,37.78
2022-11-30T07:17:48.622Z,43.75
2022-11-30T07:18:53.801Z,38.25
2022-11-30T07:19:56.058Z,41.85
2022-11-30T07:21:03.068Z,45.30
2022-11-30T07:22:05.332Z,45.55
2022-11-30T07:23:26.767Z,42.85
2022-11-30T07:24:48.107Z,45.00
2022-11-30T07:26:07.294Z,45.90
2022-11-30T07:27:10.051Z,52.75
2022-11-30T07:28:12.295Z,46.55
2022-11-30T07:29:14.529Z,48.17
2022-11-30T07:30:17.075Z,43.55
2022-11-30T07:31:22.445Z,44.17
2022-11-30T07:32:24.776Z,48.03
2022-11-30T07:33:27.140Z,46.33
2022-11-30T07:34:30.387Z,43.00
2022-11-30T07:35:32.834Z,49.15
2022-11-30T07:36:36.804Z,40.85
2022-11-30T07:37:39.810Z,46.28
2022-11-30T07:38:42.196Z,41.63
2022-11-30T07:39:44.435Z,48.53
2022-11-30T07:40:46.786Z,47.05
2022-11-30T07:41:49.097Z,44.20
2022-11-30T07:42:55.757Z,46.58
2022-11-30T07:43:58.121Z,47.97
2022-11-30T07:45:00.608Z,41.00
2022-11-30T07:46:04.490Z,45.97
2022-11-30T07:47:06.780Z,45.58
2022-11-30T07:48:09.862Z,43.30
2022-11-30T07:49:12.358Z,43.85
2022-11-30T07:50:15.321Z,39.08
2022-11-30T07:51:20.044Z,47.80
2022-11-30T07:52:22.310Z,42.17
2022-11-30T07:53:24.569Z,44.30
2022-11-30T07:54:27.244Z,46.40
2022-11-30T07:55:29.516Z,39.20
2022-11-30T07:56:31.852Z,42.50
2022-11-30T07:57:34.192Z,43.65
2022-11-30T07:58:37.011Z,42.55
2022-11-30T07:59:40.224Z,44.83
2022-11-30T08:00:42.510Z,46.90
2022-11-30T08:01:46.466Z,44.58
2022-11-30T08:02:50.925Z,37.97
2022-11-30T08:03:53.975Z,42.88
2022-11-30T08:04:58.632Z,40.65
2022-11-30T08:06:09.929Z,41.53
2022-11-30T08:07:12.379Z,51.15
2022-11-30T08:08:14.729Z,43.95
2022-11-30T08:09:20.639Z,42.40
2022-11-30T08:10:24.159Z,43.85
2022-11-30T08:11:30.366Z,39.88
2022-11-30T08:12:32.792Z,40.03
2022-11-30T08:13:35.373Z,46.15
2022-11-30T08:15:11.185Z,38.30
2022-11-30T08:16:08.292Z,37.35
2022-11-30T08:17:10.852Z,49.35
2022-11-30T08:18:13.158Z,39.63
2022-11-30T08:19:15.595Z,43.10
2022-11-30T08:20:17.869Z,42.22
2022-11-30T08:21:21.727Z,38.78
2022-11-30T08:22:24.281Z,40.28
2022-11-30T08:23:29.024Z,37.65
2022-11-30T08:24:31.384Z,40.22
2022-11-30T08:25:35.452Z,35.80
2022-11-30T08:26:37.735Z,37.80
2022-11-30T08:27:40.075Z,38.47
2022-11-30T08:28:43.671Z,34.83
2022-11-30T08:29:45.975Z,35.38
2022-11-30T08:30:49.279Z,32.85
2022-11-30T08:31:51.518Z,36.95
2022-11-30T08:32:53.858Z,37.47
2022-11-30T08:33:58.098Z,36.17
2022-11-30T08:35:00.624Z,33.40
2022-11-30T08:36:10.032Z,33.85
2022-11-30T08:37:12.436Z,39.50
2022-11-30T08:38:14.708Z,34.15
2022-11-30T08:39:16.989Z,37.80
2022-11-30T08:40:19.880Z,36.28
2022-11-30T08:41:23.177Z,36.80
2022-11-30T08:42:25.412Z,41.80
2022-11-30T08:43:28.517Z,38.30
2022-11-30T08:44:30.973Z,40.15
2022-11-30T08:45:33.266Z,38.22
2022-11-30T08:46:51.043Z,39.95
2022-11-30T08:47:55.124Z,35.97
2022-11-30T08:49:12.867Z,37.97
2022-11-30T08:50:20.354Z,40.63
2022-11-30T08:51:22.690Z,42.13
2022-11-30T08:52:25.278Z,41.15
2022-11-30T08:53:27.695Z,38.78
2022-11-30T08:54:30.092Z,38.30
2022-11-30T08:55:32.329Z,37.53
2022-11-30T08:56:34.603Z,39.80
2022-11-30T08:57:37.340Z,34.97
2022-11-30T08:58:40.502Z,39.97
2022-11-30T08:59:42.801Z,38.15
2022-11-30T09:00:45.059Z,42.42
2022-11-30T09:01:47.315Z,36.50
2022-11-30T09:02:49.684Z,39.50
2022-11-30T09:03:54.390Z,37.78
2022-11-30T09:04:56.654Z,40.03
2022-11-30T09:06:26.663Z,34.85
2022-11-30T09:07:28.962Z,36.15
2022-11-30T09:08:32.070Z,39.75
2022-11-30T09:09:34.390Z,37.55
2022-11-30T09:10:36.629Z,35.55
2022-11-30T09:11:38.905Z,33.83
2022-11-30T09:12:41.757Z,32.80
2022-11-30T09:13:45.279Z,34.95
2022-11-30T09:14:53.969Z,34.30
2022-11-30T09:15:58.284Z,38.10
2022-11-30T09:17:00.613Z,34.33
2022-11-30T09:18:02.916Z,36.35
2022-11-30T09:19:05.156Z,36.55
2022-11-30T09:20:08.295Z,36.65
2022-11-30T09:21:13.628Z,37.42
2022-11-30T09:22:15.930Z,35.00
2022-11-30T09:23:18.183Z,32.88
2022-11-30T09:24:21.197Z,34.13
2022-11-30T09:25:23.516Z,34.30
2022-11-30T09:26:25.981Z,31.52
2022-11-30T09:27:31.012Z,33.95
2022-11-30T09:28:33.893Z,35.65
2022-11-30T09:29:36.607Z,36.42
2022-11-30T09:30:38.928Z,33.00
2022-11-30T09:31:41.196Z,33.72
2022-11-30T09:32:45.370Z,34.05
2022-11-30T09:33:48.258Z,32.80
2022-11-30T09:34:50.986Z,28.67
2022-11-30T09:36:01.466Z,32.10
2022-11-30T09:37:03.768Z,28.55
2022-11-30T09:38:06.072Z,28.00
2022-11-30T09:39:12.926Z,27.05
2022-11-30T09:40:17.296Z,37.08
2022-11-30T09:41:34.366Z,32.13
2022-11-30T09:42:50.381Z,34.65
2022-11-30T09:44:01.225Z,31.45
2022-11-30T09:45:29.947Z,32.92
2022-11-30T09:46:39.639Z,33.15
2022-11-30T09:48:10.938Z,39.33
2022-11-30T09:49:46.872Z,36.05
2022-11-30T09:50:50.724Z,29.50
2022-11-30T09:51:55.327Z,27.42
2022-11-30T09:53:02.185Z,32.67
2022-11-30T09:54:09.671Z,32.17
2022-11-30T09:55:17.633Z,30.75
2022-11-30T09:56:35.662Z,27.38
2022-11-30T09:57:50.711Z,30.08
2022-11-30T09:59:17.159Z,33.95
2022-11-30T10:00:21.894Z,31.40
2022-11-30T10:01:24.364Z,32.83
2022-11-30T10:02:32.658Z,27.55
2022-11-30T10:03:35.055Z,27.17
2022-11-30T10:04:37.374Z,26.95
2022-11-30T10:06:15.480Z,27.92
2022-11-30T10:07:30.014Z,28.52
2022-11-30T10:08:51.116Z,30.02
2022-11-30T10:11:59.793Z,32.63
2022-11-30T10:13:28.050Z,29.38
2022-11-30T10:14:57.240Z,26.70
2022-11-30T10:16:02.345Z,25.67
2022-11-30T10:17:22.439Z,30.52
2022-11-30T10:18:47.653Z,29.40
2022-11-30T10:20:01.834Z,26.20
2022-11-30T10:21:18.317Z,31.70
2022-11-30T10:22:29.007Z,31.38
2022-11-30T10:24:00.691Z,26.55
2022-11-30T10:25:33.173Z,30.40
2022-11-30T10:26:38.352Z,28.25
2022-11-30T10:28:12.700Z,26.60
2022-11-30T10:29:32.074Z,23.48
2022-11-30T10:30:37.617Z,23.25
2022-11-30T10:31:42.266Z,26.40
2022-11-30T10:32:50.893Z,26.60
2022-11-30T10:33:57.771Z,25.02
2022-11-30T10:35:16.314Z,22.80
2022-11-30T10:36:40.640Z,29.27
2022-11-30T10:37:45.350Z,28.10
2022-11-30T10:38:52.949Z,26.90
2022-11-30T10:40:05.862Z,26.33
2022-11-30T10:41:16.691Z,27.63
2022-11-30T10:42:37.258Z,26.05
2022-11-30T10:43:52.956Z,22.95
2022-11-30T10:45:19.789Z,24.20
2022-11-30T10:46:28.218Z,25.15
2022-11-30T10:47:37.380Z,28.95
2022-11-30T10:48:47.874Z,25.58
2022-11-30T10:49:51.270Z,24.40
2022-11-30T10:50:54.236Z,23.23
2022-11-30T10:52:02.982Z,22.65
2022-11-30T10:53:06.444Z,23.52
2022-11-30T10:54:20.511Z,24.90
2022-11-30T10:55:29.632Z,19.63
2022-11-30T10:56:31.962Z,25.77
2022-11-30T10:57:34.313Z,26.10
2022-11-30T10:58:39.382Z,21.95
2022-11-30T10:59:49.065Z,25.00
2022-11-30T11:01:29.292Z,22.80
2022-11-30T11:02:46.191Z,22.60
2022-11-30T11:03:50.063Z,24.80
2022-11-30T11:05:19.812Z,24.50
2022-11-30T11:06:24.556Z,20.35
2022-11-30T11:07:26.894Z,23.00
2022-11-30T11:08:29.182Z,22.17
2022-11-30T11:09:34.095Z,28.80
2022-11-30T11:10:40.630Z,23.02
2022-11-30T11:11:42.846Z,24.33
2022-11-30T11:12:53.150Z,22.45
2022-11-30T11:14:19.563Z,23.10
2022-11-30T11:15:28.782Z,22.58
2022-11-30T11:16:55.456Z,23.67
2022-11-30T11:18:23.101Z,19.77
2022-11-30T11:19:32.368Z,21.83
2022-11-30T11:20:39.034Z,22.05
2022-11-30T11:21:49.013Z,19.45
2022-11-30T11:22:51.365Z,21.88
2022-11-30T11:23:55.791Z,20.88
2022-11-30T11:25:20.482Z,28.00
2022-11-30T11:26:28.376Z,20.85
2022-11-30T11:27:33.154Z,20.85
2022-11-30T11:28:38.380Z,21.85
2022-11-30T11:29:40.660Z,20.38
2022-11-30T11:30:42.995Z,20.48
2022-11-30T11:31:49.096Z,20.80
2022-11-30T11:33:05.672Z,18.35
2022-11-30T11:34:25.006Z,18.05
2022-11-30T11:35:42.914Z,17.33
2022-11-30T11:36:45.147Z,21.30
2022-11-30T11:37:51.548Z,21.08
2022-11-30T11:38:53.855Z,20.77
2022-11-30T11:40:08.161Z,17.80
2022-11-30T11:41:28.139Z,17.42
2022-11-30T11:42:34.330Z,20.80
2022-11-30T11:44:03.380Z,23.92
2022-11-30T11:45:14.819Z,20.15
2022-11-30T11:46:17.544Z,16.98
2022-11-30T11:47:43.787Z,23.05
2022-11-30T11:49:01.335Z,20.55
2022-11-30T11:50:27.142Z,21.55
2022-11-30T11:51:40.419Z,19.85
2022-11-30T11:52:44.182Z,20.35
2022-11-30T11:53:53.999Z,19.77
2022-11-30T11:55:00.572Z,21.95
2022-11-30T11:56:18.224Z,23.20
2022-11-30T11:57:23.781Z,24.02
2022-11-30T11:58:45.068Z,19.75
2022-11-30T12:00:09.889Z,21.50
2022-11-30T12:01:41.287Z,20.75
2022-11-30T12:02:57.714Z,21.35
2022-11-30T12:04:20.681Z,22.42
2022-11-30T12:05:31.044Z,24.10
2022-11-30T12:06:34.369Z,25.02
2022-11-30T12:07:46.751Z,26.05
2022-11-30T12:09:00.880Z,27.40
2022-11-30T12:10:21.830Z,25.85
2022-11-30T12:11:42.200Z,24.63
2022-11-30T12:12:48.471Z,23.80
2022-11-30T12:13:54.015Z,21.85
2022-11-30T12:14:56.985Z,25.30
2022-11-30T12:16:31.482Z,23.15
2022-11-30T12:18:08.998Z,22.52
2022-11-30T12:19:21.286Z,19.58
2022-11-30T12:20:40.012Z,21.20
2022-11-30T12:21:45.142Z,21.63
2022-11-30T12:22:54.034Z,22.90
2022-11-30T12:24:16.915Z,26.58
2022-11-30T12:25:31.418Z,23.50
2022-11-30T12:26:42.488Z,21.52
2022-11-30T12:28:06.697Z,23.05
2022-11-30T12:29:34.464Z,20.60
2022-11-30T12:30:49.484Z,24.75
2022-11-30T12:32:01.362Z,22.80
2022-11-30T12:33:06.655Z,20.60
2022-11-30T12:34:39.432Z,24.38
2022-11-30T12:36:05.028Z,21.90
2022-11-30T12:37:22.134Z,26.92
2022-11-30T12:38:49.544Z,24.65
2022-11-30T12:40:03.411Z,43.75
2022-11-30T12:41:23.282Z,24.60
2022-11-30T12:42:37.569Z,29.05
2022-11-30T12:43:59.418Z,30.60
2022-11-30T12:45:25.799Z,25.95
2022-11-30T12:46:41.208Z,26.70
2022-11-30T12:48:06.627Z,30.20
2022-11-30T12:49:23.085Z,30.00
2022-11-30T12:50:59.535Z,28.98
2022-11-30T12:52:27.359Z,23.70
2022-11-30T12:53:43.264Z,21.27
2022-11-30T12:55:24.866Z,20.10
2022-11-30T12:56:51.736Z,21.13
2022-11-30T12:58:16.676Z,19.92
2022-11-30T12:59:29.747Z,27.85
2022-11-30T13:00:46.062Z,31.23
2022-11-30T13:01:52.456Z,32.38
2022-11-30T13:03:31.531Z,31.83
2022-11-30T13:04:58.657Z,33.97
2022-11-30T13:06:09.642Z,33.88
2022-11-30T13:07:28.227Z,33.85
2022-11-30T13:08:51.270Z,34.45
2022-11-30T13:10:04.392Z,40.55
2022-11-30T13:11:16.191Z,44.20
2022-11-30T13:12:35.992Z,39.13
2022-11-30T13:13:49.007Z,42.50
2022-11-30T13:14:58.570Z,40.88
2022-11-30T13:16:05.081Z,44.42
2022-11-30T13:17:17.002Z,46.42
2022-11-30T13:18:21.442Z,51.03
2022-11-30T13:19:49.598Z,46.22
2022-11-30T13:21:15.692Z,52.00
2022-11-30T13:22:53.081Z,50.53
2022-11-30T13:24:00.013Z,50.00
2022-11-30T13:25:44.927Z,49.35
2022-11-30T13:27:08.774Z,55.70
2022-11-30T13:28:46.009Z,49.20
2022-11-30T13:30:31.098Z,55.38
2022-11-30T13:31:39.753Z,48.67
2022-11-30T13:32:57.878Z,47.58
2022-11-30T13:34:01.251Z,50.38
2022-11-30T13:35:27.611Z,56.92
2022-11-30T13:36:41.779Z,59.17
2022-11-30T13:37:44.027Z,54.17
2022-11-30T13:38:46.585Z,63.70
2022-11-30T13:39:51.297Z,54.35
2022-11-30T13:41:03.116Z,55.28
2022-11-30T13:42:08.361Z,52.67
2022-11-30T13:43:21.563Z,56.13
2022-11-30T13:44:25.861Z,51.22
2022-11-30T13:45:34.969Z,55.45
2022-11-30T13:46:38.795Z,52.28
2022-11-30T13:47:48.178Z,59.65
2022-11-30T13:49:22.508Z,55.42
2022-11-30T13:50:38.698Z,58.55
2022-11-30T13:51:42.277Z,55.15
2022-11-30T13:53:02.870Z,54.28
2022-11-30T13:54:41.621Z,49.22
2022-11-30T13:55:49.498Z,52.20
2022-11-30T13:56:51.819Z,52.42
2022-11-30T13:57:54.010Z,53.45
2022-11-30T13:59:23.718Z,54.85
2022-11-30T14:00:30.010Z,53.92
2022-11-30T14:01:32.425Z,51.30
2022-11-30T14:02:53.840Z,55.35
2022-11-30T14:04:14.551Z,63.33
2022-11-30T14:05:16.813Z,59.67
2022-11-30T14:06:41.334Z,59.17
2022-11-30T14:07:52.691Z,52.40
2022-11-30T14:08:55.011Z,57.83
2022-11-30T14:09:58.778Z,56.85
2022-11-30T14:11:19.190Z,60.53
2022-11-30T14:12:34.672Z,52.17
2022-11-30T14:13:36.909Z,55.75
2022-11-30T14:14:46.374Z,57.90
2022-11-30T14:15:48.941Z,55.80
2022-11-30T14:16:51.321Z,53.92
2022-11-30T14:17:57.419Z,58.20
2022-11-30T14:19:00.739Z,62.88
2022-11-30T14:20:17.857Z,66.70
2022-11-30T14:21:26.156Z,60.55
2022-11-30T14:22:30.868Z,69.95
2022-11-30T14:23:51.842Z,59.42
2022-11-30T14:24:55.511Z,53.58
2022-11-30T14:26:11.031Z,64.72
2022-11-30T14:27:17.844Z,59.20